CheckWX is a tool to help pilots better visualize weather data.  It is not intended as a substitute for an official pre-flight weather briefing.

09:12:59 UTC

KMHT METAR
Manchester Airport
Manchester, New Hampshire, USA
Current

20 mins ago

KMHT 180853Z 29007KT 10SM BKN040 09/03 A2949 RMK AO2 SLP001 T00940028 51024
Observed
Oct-18 @ 08:53 UTC
Wind
  • 290° at 7 KTS
Visibility
10 SM
Flight Rules
VFR
Cloud Levels
  • Broken at 4,000' AGL
Temperature
C / 48°F
Dewpoint
C / 37°F
Humidity
66%
Altimeter
29.49" Hg
Pressure
998.62 hPa
Previous

1 hour ago

KMHT 180753Z 29010KT 10SM SCT041 09/03 A2947 RMK AO2 SLP995 T00940033
Observed
Oct-18 @ 07:53 UTC
Wind
  • 290° at 10 KTS
Visibility
10 SM
Flight Rules
VFR
Cloud Levels
  • Scattered at 4,100' AGL
Temperature
C / 48°F
Dewpoint
C / 37°F
Humidity
66%
Altimeter
29.47" Hg
Pressure
998.02 hPa
Previous

2 hours ago

KMHT 180653Z 27004KT 10SM BKN040 09/03 A2945 RMK AO2 SLP988 T00890028
Observed
Oct-18 @ 06:53 UTC
Wind
  • 270° at 4 KTS
Visibility
10 SM
Flight Rules
VFR
Cloud Levels
  • Broken at 4,000' AGL
Temperature
C / 48°F
Dewpoint
C / 37°F
Humidity
66%
Altimeter
29.45" Hg
Pressure
997.32 hPa